createdAt,value
2023-04-23T00:01:48.038Z,11.23
2023-04-23T00:04:18.188Z,12.68
2023-04-23T00:06:46.914Z,13.45
2023-04-23T00:09:15.463Z,15.57
2023-04-23T00:11:42.350Z,16.50
2023-04-23T00:14:09.348Z,18.50
2023-04-23T00:16:36.471Z,16.48
2023-04-23T00:19:03.466Z,17.80
2023-04-23T00:21:30.244Z,17.13
2023-04-23T00:23:56.964Z,17.67
2023-04-23T00:26:23.628Z,16.92
2023-04-23T00:28:50.451Z,16.75
2023-04-23T00:31:17.235Z,17.05
2023-04-23T00:33:44.058Z,18.77
2023-04-23T00:36:10.742Z,17.00
2023-04-23T00:38:37.581Z,16.77
2023-04-23T00:41:04.328Z,15.82
2023-04-23T00:43:31.449Z,17.48
2023-04-23T00:45:58.292Z,16.77
2023-04-23T00:48:25.066Z,16.40
2023-04-23T00:50:59.769Z,18.25
2023-04-23T00:53:27.156Z,18.80
2023-04-23T00:55:53.881Z,18.83
2023-04-23T00:58:21.154Z,20.05
2023-04-23T01:00:49.214Z,22.08
2023-04-23T01:03:18.723Z,22.33
2023-04-23T01:05:45.665Z,22.33
2023-04-23T01:08:15.320Z,22.75
2023-04-23T01:10:45.886Z,20.60
2023-04-23T01:13:13.629Z,21.63
2023-04-23T01:15:40.483Z,24.90
2023-04-23T01:18:11.065Z,27.05
2023-04-23T01:20:38.026Z,29.08
2023-04-23T01:23:05.073Z,28.75
2023-04-23T01:25:31.911Z,29.55
2023-04-23T01:27:58.909Z,28.02
2023-04-23T01:30:27.258Z,29.77
2023-04-23T01:32:56.406Z,28.58
2023-04-23T01:35:23.797Z,25.95
2023-04-23T01:37:52.524Z,25.25
2023-04-23T01:40:20.355Z,25.52
2023-04-23T01:42:48.348Z,23.45
2023-04-23T01:45:15.649Z,21.58
2023-04-23T01:47:42.556Z,21.23
2023-04-23T01:50:09.516Z,21.27
2023-04-23T01:52:36.517Z,20.42
2023-04-23T01:55:03.699Z,21.17
2023-04-23T01:57:30.559Z,21.23
2023-04-23T02:00:13.470Z,22.30
2023-04-23T02:02:41.479Z,21.23
2023-04-23T02:05:29.018Z,21.00
2023-04-23T02:07:56.462Z,20.80
2023-04-23T02:10:23.114Z,19.00
2023-04-23T02:12:49.824Z,20.92
2023-04-23T02:15:16.662Z,20.00
2023-04-23T02:17:43.446Z,19.90
2023-04-23T02:20:11.069Z,18.92
2023-04-23T02:22:39.353Z,19.13
2023-04-23T02:25:07.400Z,19.27
2023-04-23T02:27:34.959Z,20.88
2023-04-23T02:30:02.124Z,22.05
2023-04-23T02:32:28.842Z,27.45
2023-04-23T02:34:56.214Z,29.77
2023-04-23T02:37:22.862Z,29.75
2023-04-23T02:39:49.505Z,28.67
2023-04-23T02:42:16.246Z,30.20
2023-04-23T02:44:43.164Z,31.25
2023-04-23T02:47:10.086Z,34.75
2023-04-23T02:49:36.811Z,39.72
2023-04-23T02:52:03.988Z,42.10
2023-04-23T02:54:32.465Z,42.00
2023-04-23T02:56:59.223Z,42.95
2023-04-23T02:59:25.989Z,45.33
2023-04-23T03:01:52.753Z,45.17
2023-04-23T03:04:20.504Z,45.58
2023-04-23T03:06:47.954Z,48.10
2023-04-23T03:09:14.646Z,46.42
2023-04-23T03:11:41.381Z,46.50
2023-04-23T03:14:08.051Z,47.83
2023-04-23T03:16:35.079Z,47.63
2023-04-23T03:19:01.759Z,43.80
2023-04-23T03:21:28.434Z,40.47
2023-04-23T03:23:55.248Z,38.15
2023-04-23T03:26:21.935Z,47.03
2023-04-23T03:28:48.625Z,31.52
2023-04-23T03:31:15.410Z,33.35
2023-04-23T03:33:42.249Z,30.50
2023-04-23T03:36:08.977Z,27.05
2023-04-23T03:38:35.686Z,35.58
2023-04-23T03:41:02.420Z,26.50
2023-04-23T03:43:29.161Z,29.50
2023-04-23T03:45:55.834Z,23.65
2023-04-23T03:48:22.507Z,20.73
2023-04-23T03:50:49.296Z,19.25
2023-04-23T03:53:17.795Z,21.65
2023-04-23T03:55:44.727Z,22.83
2023-04-23T03:58:11.418Z,23.40
2023-04-23T04:00:38.038Z,23.40
2023-04-23T04:03:04.862Z,22.80
2023-04-23T04:05:32.018Z,23.85
2023-04-23T04:07:58.700Z,25.25
2023-04-23T04:10:25.383Z,24.95
2023-04-23T04:12:52.150Z,23.67
2023-04-23T04:15:20.778Z,21.33
2023-04-23T04:17:47.759Z,19.98
2023-04-23T04:20:14.566Z,23.13
2023-04-23T04:22:41.347Z,24.10
2023-04-23T04:25:08.454Z,22.83
2023-04-23T04:27:35.520Z,21.33
2023-04-23T04:30:02.529Z,18.80
2023-04-23T04:32:29.329Z,18.08
2023-04-23T04:34:56.026Z,17.20
2023-04-23T04:37:22.668Z,16.92
2023-04-23T04:39:49.421Z,15.65
2023-04-23T04:42:16.342Z,16.08
2023-04-23T04:44:43.892Z,17.95
2023-04-23T04:47:10.937Z,18.10
2023-04-23T04:49:38.416Z,20.30
2023-04-23T04:52:05.233Z,20.67
2023-04-23T04:54:31.997Z,22.77
2023-04-23T04:56:58.712Z,22.52
2023-04-23T04:59:25.456Z,28.38
2023-04-23T05:01:52.161Z,28.92
2023-04-23T05:04:18.956Z,31.02
2023-04-23T05:06:45.796Z,26.27
2023-04-23T05:09:12.427Z,26.13
2023-04-23T05:11:39.688Z,25.35
2023-04-23T05:14:06.308Z,25.73
2023-04-23T05:16:33.363Z,24.80
2023-04-23T05:19:00.185Z,23.92
2023-04-23T05:21:27.720Z,24.63
2023-04-23T05:23:55.230Z,24.90
2023-04-23T05:26:21.896Z,25.27
2023-04-23T05:28:48.530Z,24.70
2023-04-23T05:31:15.373Z,25.50
2023-04-23T05:33:49.725Z,26.27
2023-04-23T05:36:16.880Z,27.27
2023-04-23T05:38:43.537Z,25.10
2023-04-23T05:41:10.534Z,25.13
2023-04-23T05:43:37.224Z,23.40
2023-04-23T05:46:07.663Z,24.33
2023-04-23T05:48:34.823Z,23.73
2023-04-23T05:51:01.868Z,24.17
2023-04-23T05:53:28.729Z,24.98
2023-04-23T05:55:55.490Z,24.52
2023-04-23T05:58:22.224Z,20.65
2023-04-23T06:00:49.929Z,20.55
2023-04-23T06:03:16.764Z,20.52
2023-04-23T06:05:43.784Z,21.98
2023-04-23T06:08:10.604Z,20.70
2023-04-23T06:10:37.356Z,19.73
2023-04-23T06:13:04.056Z,18.25
2023-04-23T06:15:30.900Z,18.77
2023-04-23T06:17:57.851Z,16.98
2023-04-23T06:20:25.225Z,17.33
2023-04-23T06:22:51.937Z,16.92
2023-04-23T06:25:18.558Z,17.35
2023-04-23T06:27:45.344Z,19.83
2023-04-23T06:30:12.513Z,20.40
2023-04-23T06:32:39.267Z,20.55
2023-04-23T06:35:07.827Z,19.45
2023-04-23T06:37:35.044Z,18.83
2023-04-23T06:40:01.817Z,19.50
2023-04-23T06:42:28.556Z,19.63
2023-04-23T06:44:55.462Z,20.73
2023-04-23T06:47:22.169Z,18.00
2023-04-23T06:49:48.906Z,18.70
2023-04-23T06:52:15.632Z,18.30
2023-04-23T06:54:42.654Z,18.45
2023-04-23T06:57:09.786Z,17.35
2023-04-23T06:59:36.492Z,16.60
2023-04-23T07:02:03.111Z,16.30
2023-04-23T07:04:29.927Z,16.60
2023-04-23T07:06:56.768Z,17.25
2023-04-23T07:09:23.495Z,17.40
2023-04-23T07:11:51.117Z,17.15
2023-04-23T07:14:18.203Z,13.82
2023-04-23T07:16:44.965Z,14.30
2023-04-23T07:19:14.268Z,15.93
2023-04-23T07:21:40.954Z,10.73
2023-04-23T07:24:07.841Z,12.07
2023-04-23T07:26:35.759Z,12.25
2023-04-23T07:29:11.142Z,9.55
2023-04-23T07:31:39.695Z,7.57
2023-04-23T07:34:06.732Z,8.88
2023-04-23T07:36:33.653Z,9.18
2023-04-23T07:39:00.299Z,8.77
2023-04-23T07:41:27.080Z,8.48
2023-04-23T07:43:53.759Z,6.00
2023-04-23T07:46:20.668Z,6.90
2023-04-23T07:48:47.502Z,5.60
2023-04-23T07:51:14.326Z,5.30
2023-04-23T07:53:41.288Z,4.32
2023-04-23T07:56:07.934Z,4.03
2023-04-23T07:58:35.609Z,4.18
2023-04-23T08:01:02.795Z,4.07
2023-04-23T08:03:29.632Z,4.00
2023-04-23T08:05:56.955Z,4.45
2023-04-23T08:08:23.643Z,4.70
2023-04-23T08:10:50.514Z,3.95
2023-04-23T08:13:17.334Z,4.18
2023-04-23T08:15:44.228Z,3.83
2023-04-23T08:18:11.537Z,4.03
2023-04-23T08:20:38.178Z,4.00
2023-04-23T08:23:05.136Z,3.88
2023-04-23T08:25:32.770Z,3.83
2023-04-23T08:27:59.886Z,3.65
2023-04-23T08:30:26.570Z,3.75
2023-04-23T08:32:54.186Z,4.32
2023-04-23T08:35:21.381Z,3.53
2023-04-23T08:37:48.084Z,3.85
2023-04-23T08:40:14.931Z,3.70
2023-04-23T08:42:51.736Z,3.38
2023-04-23T08:45:19.172Z,3.70
2023-04-23T08:47:45.985Z,4.03
2023-04-23T08:50:18.174Z,3.85
2023-04-23T08:52:48.357Z,4.65
2023-04-23T08:55:16.087Z,4.05
2023-04-23T08:57:43.001Z,3.28
2023-04-23T09:00:11.757Z,4.40
2023-04-23T09:02:41.251Z,4.68
2023-04-23T09:05:08.693Z,4.28
2023-04-23T09:07:36.257Z,3.70
2023-04-23T09:10:06.937Z,4.00
2023-04-23T09:12:37.202Z,4.30
2023-04-23T09:15:11.023Z,3.47
2023-04-23T09:17:44.451Z,4.15
2023-04-23T09:20:12.331Z,4.43
2023-04-23T09:22:49.467Z,3.92
2023-04-23T09:25:20.508Z,4.25
2023-04-23T09:27:49.529Z,3.67
2023-04-23T09:30:17.309Z,3.55
2023-04-23T09:32:46.126Z,3.92
2023-04-23T09:37:48.515Z,3.90
2023-04-23T09:40:17.279Z,4.43
2023-04-23T09:42:50.067Z,4.25
2023-04-23T09:45:17.246Z,5.95
2023-04-23T09:47:58.858Z,4.95
2023-04-23T09:50:39.813Z,4.38
2023-04-23T09:53:08.533Z,5.97
2023-04-23T09:55:40.007Z,4.20
2023-04-23T09:58:11.701Z,3.95
2023-04-23T10:00:39.118Z,4.28
2023-04-23T10:03:10.237Z,3.63
2023-04-23T10:08:13.957Z,4.97
2023-04-23T10:10:55.161Z,5.38
2023-04-23T10:13:27.662Z,3.75
2023-04-23T10:15:55.158Z,4.65
2023-04-23T10:18:21.973Z,4.28
2023-04-23T10:20:50.141Z,4.00
2023-04-23T10:23:17.686Z,3.42
2023-04-23T10:25:44.834Z,4.05
2023-04-23T10:28:12.683Z,3.65
2023-04-23T10:30:39.871Z,4.45
2023-04-23T10:33:15.754Z,4.90
2023-04-23T10:35:47.484Z,3.60
2023-04-23T10:38:15.885Z,4.28
2023-04-23T10:40:45.645Z,4.18
2023-04-23T10:43:12.693Z,4.30
2023-04-23T10:45:39.326Z,3.92
2023-04-23T10:48:06.037Z,5.22
2023-04-23T10:50:35.997Z,4.22
2023-04-23T10:53:03.493Z,4.80
2023-04-23T10:55:31.575Z,4.05
2023-04-23T10:58:07.898Z,3.95
2023-04-23T11:00:47.738Z,4.22
2023-04-23T11:03:44.508Z,4.70
2023-04-23T11:06:37.960Z,4.07
2023-04-23T11:09:44.603Z,3.78
2023-04-23T11:12:35.005Z,5.28
2023-04-23T11:15:11.679Z,3.80
2023-04-23T11:17:38.552Z,4.20
2023-04-23T11:20:13.481Z,3.80
2023-04-23T11:22:44.556Z,4.20
2023-04-23T11:25:13.137Z,3.88
2023-04-23T11:27:42.107Z,4.22
2023-04-23T11:32:49.599Z,4.00
2023-04-23T11:35:21.847Z,3.92
2023-04-23T11:37:49.487Z,3.50
2023-04-23T11:40:19.588Z,4.40
2023-04-23T11:42:50.824Z,4.25
2023-04-23T11:45:20.518Z,4.38
2023-04-23T11:47:49.071Z,4.35
2023-04-23T11:50:23.793Z,4.20
2023-04-23T11:52:50.670Z,4.75
2023-04-23T11:55:17.367Z,3.90
2023-04-23T11:57:45.782Z,3.95
2023-04-23T12:00:14.961Z,4.70
2023-04-23T12:03:02.750Z,3.70
2023-04-23T12:05:37.555Z,3.70
2023-04-23T12:08:07.673Z,4.03
2023-04-23T12:10:34.418Z,4.07
2023-04-23T12:13:01.081Z,3.42
2023-04-23T12:15:27.801Z,4.70
2023-04-23T12:18:09.558Z,3.85
2023-04-23T12:20:36.253Z,4.03
2023-04-23T12:23:09.093Z,4.07
2023-04-23T12:25:36.170Z,4.07
2023-04-23T12:28:04.979Z,4.22
2023-04-23T12:30:33.214Z,3.63
2023-04-23T12:33:04.304Z,4.55
2023-04-23T12:35:49.726Z,4.47
2023-04-23T12:38:27.092Z,4.18
2023-04-23T12:40:55.317Z,3.95
2023-04-23T12:43:22.249Z,5.20
2023-04-23T12:45:49.486Z,4.45
2023-04-23T12:48:16.250Z,4.80
2023-04-23T12:50:42.992Z,4.07
2023-04-23T12:53:09.677Z,5.85
2023-04-23T12:55:37.032Z,5.97
2023-04-23T12:58:03.649Z,3.95
2023-04-23T13:00:30.279Z,3.60
2023-04-23T13:02:57.388Z,5.18
2023-04-23T13:05:24.392Z,3.47
2023-04-23T13:07:51.168Z,3.42
2023-04-23T13:10:17.789Z,3.63
2023-04-23T13:12:44.484Z,4.53
2023-04-23T13:15:12.919Z,3.60
2023-04-23T13:17:39.655Z,4.13
2023-04-23T13:20:07.362Z,3.33
2023-04-23T13:22:34.038Z,3.92
2023-04-23T13:25:00.848Z,3.88
2023-04-23T13:27:29.936Z,3.83
2023-04-23T13:32:28.453Z,3.40
2023-04-23T13:34:55.201Z,3.70
2023-04-23T13:37:22.086Z,3.42
2023-04-23T13:39:48.896Z,3.45
2023-04-23T13:42:15.563Z,3.40
2023-04-23T13:44:42.211Z,3.47
2023-04-23T13:47:08.935Z,3.47
2023-04-23T13:49:36.041Z,3.95
2023-04-23T13:52:06.757Z,4.45
2023-04-23T13:54:33.989Z,4.15
2023-04-23T13:57:01.263Z,5.40
2023-04-23T13:59:27.934Z,4.20
2023-04-23T14:01:54.582Z,3.30
2023-04-23T14:04:24.788Z,3.97
2023-04-23T14:06:51.577Z,3.95
2023-04-23T14:09:19.137Z,3.40
2023-04-23T14:11:45.934Z,3.30
2023-04-23T14:14:12.706Z,2.92
2023-04-23T14:16:39.425Z,2.97
2023-04-23T14:19:06.665Z,3.70
2023-04-23T14:21:35.857Z,3.50
2023-04-23T14:24:09.650Z,10.25
2023-04-23T14:26:47.991Z,3.30
2023-04-23T14:29:35.223Z,3.90
2023-04-23T14:32:02.222Z,5.75
2023-04-23T14:34:28.990Z,4.70
2023-04-23T14:36:55.717Z,4.25
2023-04-23T14:39:23.162Z,4.88
2023-04-23T14:41:49.914Z,4.00
2023-04-23T14:44:16.530Z,6.20
2023-04-23T14:46:43.305Z,4.07
2023-04-23T14:49:10.549Z,3.75
2023-04-23T14:51:37.594Z,9.50
2023-04-23T14:54:05.034Z,4.22
2023-04-23T14:56:31.743Z,3.53
2023-04-23T14:58:58.350Z,3.85
2023-04-23T15:01:25.075Z,3.58
2023-04-23T15:03:53.257Z,3.78
2023-04-23T15:06:20.062Z,4.80
2023-04-23T15:08:46.693Z,3.97
2023-04-23T15:11:13.648Z,4.53
2023-04-23T15:13:56.158Z,3.47
2023-04-23T15:16:47.266Z,3.55
2023-04-23T15:19:17.943Z,3.20
2023-04-23T15:21:45.231Z,3.28
2023-04-23T15:24:11.980Z,3.53
2023-04-23T15:26:38.734Z,3.42
2023-04-23T15:29:08.815Z,3.58
2023-04-23T15:31:36.849Z,3.67
2023-04-23T15:34:06.129Z,4.15
2023-04-23T15:36:33.420Z,4.72
2023-04-23T15:39:00.286Z,7.57
2023-04-23T15:41:27.225Z,5.45
2023-04-23T15:43:55.053Z,4.78
2023-04-23T15:46:21.796Z,3.63
2023-04-23T15:48:48.501Z,4.43
2023-04-23T15:51:15.134Z,3.92
2023-04-23T15:53:42.027Z,3.30
2023-04-23T15:56:08.717Z,5.35
2023-04-23T15:58:35.435Z,4.70
2023-04-23T16:01:03.113Z,4.88
2023-04-23T16:03:29.997Z,4.38
2023-04-23T16:05:56.880Z,14.65
2023-04-23T16:08:23.562Z,6.13
2023-04-23T16:10:50.262Z,4.60
2023-04-23T16:13:16.984Z,10.80
2023-04-23T16:15:43.772Z,7.32
2023-04-23T16:18:10.473Z,9.25
2023-04-23T16:20:37.203Z,6.18
2023-04-23T16:23:03.897Z,4.80
2023-04-23T16:25:30.952Z,4.00
2023-04-23T16:27:57.815Z,4.82
2023-04-23T16:30:24.830Z,5.70
2023-04-23T16:32:51.828Z,7.22
2023-04-23T16:35:18.633Z,5.43
2023-04-23T16:37:45.706Z,5.80
2023-04-23T16:40:15.248Z,7.03
2023-04-23T16:42:42.724Z,8.35
2023-04-23T16:45:09.632Z,6.63
2023-04-23T16:47:36.334Z,6.88
2023-04-23T16:50:03.158Z,8.40
2023-04-23T16:52:29.866Z,10.05
2023-04-23T16:54:56.586Z,7.22
2023-04-23T16:57:23.766Z,6.70
2023-04-23T16:59:51.520Z,7.80
2023-04-23T17:02:19.370Z,7.05
2023-04-23T17:04:46.579Z,9.70
2023-04-23T17:07:13.589Z,9.52
2023-04-23T17:09:40.428Z,8.88
2023-04-23T17:12:07.099Z,9.55
2023-04-23T17:14:33.786Z,10.35
2023-04-23T17:17:00.521Z,11.60
2023-04-23T17:19:27.204Z,11.45
2023-04-23T17:21:53.833Z,11.50
2023-04-23T17:24:20.537Z,10.82
2023-04-23T17:26:48.080Z,9.88
2023-04-23T17:29:15.175Z,11.90
2023-04-23T17:31:42.048Z,12.30
2023-04-23T17:34:09.134Z,11.65
2023-04-23T17:36:36.016Z,11.75
2023-04-23T17:39:02.927Z,12.10
2023-04-23T17:41:29.672Z,10.25
2023-04-23T17:43:56.305Z,9.80
2023-04-23T17:46:23.077Z,9.45
2023-04-23T17:48:50.149Z,10.85
2023-04-23T17:51:16.981Z,10.45
2023-04-23T17:53:48.256Z,9.48
2023-04-23T17:56:16.266Z,10.02
2023-04-23T17:58:43.038Z,10.68
2023-04-23T18:01:10.747Z,9.77
2023-04-23T18:03:37.755Z,9.00
2023-04-23T18:06:05.148Z,9.70
2023-04-23T18:08:31.915Z,11.25
2023-04-23T18:10:59.497Z,11.15
2023-04-23T18:13:26.309Z,10.52
2023-04-23T18:15:52.954Z,11.55
2023-04-23T18:18:19.739Z,9.15
2023-04-23T18:20:47.717Z,10.07
2023-04-23T18:23:14.526Z,8.82
2023-04-23T18:25:42.069Z,11.38
2023-04-23T18:28:08.920Z,8.27
2023-04-23T18:30:38.258Z,8.98
2023-04-23T18:33:33.283Z,7.72
2023-04-23T18:36:05.809Z,8.27
2023-04-23T18:38:47.840Z,8.90
2023-04-23T18:41:14.454Z,7.97
2023-04-23T18:43:41.385Z,8.82
2023-04-23T18:46:08.148Z,9.63
2023-04-23T18:48:34.919Z,6.97
2023-04-23T18:51:13.538Z,8.13
2023-04-23T18:53:40.270Z,10.43
2023-04-23T18:56:06.928Z,7.90
2023-04-23T18:58:33.656Z,8.23
2023-04-23T19:01:00.440Z,7.60
2023-04-23T19:03:29.171Z,11.10
2023-04-23T19:05:56.127Z,7.68
2023-04-23T19:08:28.409Z,7.07
2023-04-23T19:10:56.546Z,8.50
2023-04-23T19:13:23.314Z,6.32
2023-04-23T19:15:51.045Z,7.35
2023-04-23T19:18:18.516Z,6.10
2023-04-23T19:20:45.583Z,5.93
2023-04-23T19:23:12.387Z,5.22
2023-04-23T19:25:39.096Z,5.35
2023-04-23T19:28:05.853Z,5.15
2023-04-23T19:30:32.649Z,5.53
2023-04-23T19:32:59.437Z,6.85
2023-04-23T19:35:26.582Z,5.88
2023-04-23T19:37:53.324Z,3.90
2023-04-23T19:40:20.003Z,6.65
2023-04-23T19:42:46.762Z,4.70
2023-04-23T19:45:15.509Z,5.93
2023-04-23T19:47:42.639Z,6.50
2023-04-23T19:50:10.063Z,6.85
2023-04-23T19:52:37.177Z,5.50
2023-04-23T19:55:04.208Z,5.40
2023-04-23T19:57:31.151Z,11.80
2023-04-23T19:59:57.818Z,7.72
2023-04-23T20:02:24.605Z,6.35
2023-04-23T20:04:51.318Z,5.90
2023-04-23T20:07:18.080Z,6.13
2023-04-23T20:09:45.310Z,5.00
2023-04-23T20:12:13.577Z,4.95
2023-04-23T20:14:40.217Z,6.32
2023-04-23T20:17:07.470Z,4.72
2023-04-23T20:19:34.335Z,6.82
2023-04-23T20:22:01.089Z,6.90
2023-04-23T20:24:27.698Z,7.05
2023-04-23T20:26:54.354Z,6.93
2023-04-23T20:29:20.979Z,5.95
2023-04-23T20:31:49.491Z,5.13
2023-04-23T20:34:16.944Z,4.82
2023-04-23T20:36:47.224Z,5.78
2023-04-23T20:39:14.172Z,5.88
2023-04-23T20:41:41.245Z,5.68
2023-04-23T20:44:09.196Z,5.75
2023-04-23T20:46:36.893Z,6.13
2023-04-23T20:49:04.254Z,5.13
2023-04-23T20:51:34.360Z,5.35
2023-04-23T20:54:01.993Z,5.18
2023-04-23T20:56:29.069Z,5.10
2023-04-23T20:58:57.516Z,6.18
2023-04-23T21:01:25.085Z,5.35
2023-04-23T21:03:53.630Z,5.45
2023-04-23T21:06:21.624Z,4.40
2023-04-23T21:08:48.560Z,4.43
2023-04-23T21:11:17.829Z,5.10
2023-04-23T21:13:47.687Z,4.50
2023-04-23T21:16:14.677Z,4.88
2023-04-23T21:18:41.972Z,4.47
2023-04-23T21:21:08.677Z,4.32
2023-04-23T21:23:35.985Z,4.60
2023-04-23T21:26:03.361Z,4.32
2023-04-23T21:28:30.158Z,5.82
2023-04-23T21:30:58.367Z,4.68
2023-04-23T21:33:25.715Z,4.53
2023-04-23T21:35:53.913Z,4.03
2023-04-23T21:38:21.477Z,5.43
2023-04-23T21:40:48.634Z,4.82
2023-04-23T21:43:15.533Z,5.45
2023-04-23T21:45:42.278Z,5.22
2023-04-23T21:48:09.346Z,6.10
2023-04-23T21:50:36.373Z,8.07
2023-04-23T21:53:04.149Z,8.95
2023-04-23T21:55:31.823Z,10.15
2023-04-23T21:58:09.803Z,9.77
2023-04-23T22:00:44.755Z,8.85
2023-04-23T22:03:13.156Z,8.77
2023-04-23T22:05:43.461Z,9.45
2023-04-23T22:08:10.173Z,9.18
2023-04-23T22:10:42.926Z,9.55
2023-04-23T22:13:10.282Z,9.30
2023-04-23T22:15:37.021Z,9.20
2023-04-23T22:18:03.959Z,7.07
2023-04-23T22:20:30.760Z,6.65
2023-04-23T22:22:57.546Z,5.75
2023-04-23T22:25:24.351Z,5.35
2023-04-23T22:27:51.106Z,4.80
2023-04-23T22:30:18.246Z,5.10
2023-04-23T22:32:45.707Z,4.80
2023-04-23T22:35:12.436Z,5.55
2023-04-23T22:37:39.556Z,5.18
2023-04-23T22:40:08.153Z,4.80
2023-04-23T22:42:35.079Z,6.43
2023-04-23T22:45:01.976Z,4.78
2023-04-23T22:47:28.766Z,4.30
2023-04-23T22:49:55.485Z,4.93
2023-04-23T22:52:22.180Z,4.95
2023-04-23T22:54:48.937Z,4.78
2023-04-23T22:57:15.793Z,4.85
2023-04-23T22:59:42.585Z,4.72
2023-04-23T23:02:09.526Z,4.47
2023-04-23T23:04:38.578Z,4.55
2023-04-23T23:07:08.714Z,5.00
2023-04-23T23:09:35.543Z,5.07
2023-04-23T23:12:03.371Z,4.22
2023-04-23T23:14:31.830Z,4.72
2023-04-23T23:16:58.928Z,4.97
2023-04-23T23:19:28.675Z,4.93
2023-04-23T23:21:55.752Z,5.07
2023-04-23T23:24:22.945Z,4.78
2023-04-23T23:26:50.523Z,4.85
2023-04-23T23:29:17.342Z,5.50
2023-04-23T23:31:44.259Z,5.30
2023-04-23T23:34:11.353Z,5.50
2023-04-23T23:36:38.098Z,4.93
2023-04-23T23:39:04.880Z,5.97
2023-04-23T23:41:31.563Z,8.57
2023-04-23T23:43:58.286Z,9.93
2023-04-23T23:46:25.513Z,12.90
2023-04-23T23:48:52.303Z,28.10
2023-04-23T23:51:19.102Z,27.50
2023-04-23T23:53:45.875Z,24.42
2023-04-23T23:56:12.556Z,21.13
2023-04-23T23:58:39.273Z,19.63
